createdAt,value
2018-12-01T00:00:29.659Z,3.90
2018-12-01T00:02:58.871Z,3.80
2018-12-01T00:05:28.035Z,3.90
2018-12-01T00:07:57.340Z,3.90
2018-12-01T00:10:26.524Z,3.90
2018-12-01T00:12:55.344Z,3.90
2018-12-01T00:15:25.952Z,3.90
2018-12-01T00:17:56.723Z,3.90
2018-12-01T00:20:29.269Z,3.90
2018-12-01T00:22:58.336Z,3.90
2018-12-01T00:25:31.322Z,3.90
2018-12-01T00:28:00.760Z,3.90
2018-12-01T00:30:29.752Z,3.90
2018-12-01T00:32:58.985Z,3.90
2018-12-01T00:35:28.161Z,3.90
2018-12-01T00:37:57.702Z,3.90
2018-12-01T00:40:26.800Z,3.90
2018-12-01T00:42:56.138Z,4.00
2018-12-01T00:45:25.136Z,4.00
2018-12-01T00:47:56.028Z,4.00
2018-12-01T00:50:26.051Z,4.00
2018-12-01T00:52:55.156Z,4.00
2018-12-01T00:55:24.200Z,4.00
2018-12-01T00:57:53.184Z,4.00
2018-12-01T01:00:24.090Z,4.00
2018-12-01T01:02:55.185Z,4.00
2018-12-01T01:05:27.945Z,4.00
2018-12-01T01:07:57.624Z,4.00
2018-12-01T01:10:27.964Z,4.00
2018-12-01T01:12:57.968Z,4.00
2018-12-01T01:15:27.185Z,4.00
2018-12-01T01:17:56.062Z,4.00
2018-12-01T01:20:25.762Z,4.00
2018-12-01T01:22:54.915Z,4.00
2018-12-01T01:25:23.932Z,4.00
2018-12-01T01:27:53.174Z,4.00
2018-12-01T01:30:23.325Z,4.00
2018-12-01T01:32:57.474Z,4.00
2018-12-01T01:35:26.436Z,4.00
2018-12-01T01:37:56.658Z,4.00
2018-12-01T01:40:25.720Z,4.00
2018-12-01T01:42:54.770Z,4.00
2018-12-01T01:45:23.647Z,4.00
2018-12-01T01:47:54.007Z,4.10
2018-12-01T01:50:23.842Z,4.10
2018-12-01T01:52:52.880Z,4.10
2018-12-01T01:55:21.775Z,4.10
2018-12-01T01:57:51.148Z,4.10
2018-12-01T02:00:20.960Z,4.10
2018-12-01T02:02:50.720Z,4.10
2018-12-01T02:05:21.552Z,4.10
2018-12-01T02:07:50.347Z,4.10
2018-12-01T02:10:19.924Z,4.00
2018-12-01T02:12:48.859Z,4.00
2018-12-01T02:15:17.728Z,4.00
2018-12-01T02:17:46.598Z,4.00
2018-12-01T02:20:16.399Z,4.00
2018-12-01T02:22:45.183Z,4.00
2018-12-01T02:25:14.796Z,4.10
2018-12-01T02:27:43.515Z,4.00
2018-12-01T02:30:14.241Z,4.00
2018-12-01T02:32:43.035Z,4.00
2018-12-01T02:35:16.310Z,4.00
2018-12-01T02:37:46.171Z,4.00
2018-12-01T02:40:15.016Z,4.00
2018-12-01T02:42:44.054Z,4.00
2018-12-01T02:45:23.872Z,4.00
2018-12-01T02:47:52.496Z,4.00
2018-12-01T02:50:27.032Z,4.00
2018-12-01T02:52:56.712Z,4.00
2018-12-01T02:55:25.472Z,4.00
2018-12-01T02:57:54.265Z,4.10
2018-12-01T03:00:23.093Z,4.00
2018-12-01T03:02:51.768Z,4.10
2018-12-01T03:05:22.731Z,4.10
2018-12-01T03:07:52.008Z,4.10
2018-12-01T03:10:20.816Z,4.10
2018-12-01T03:12:50.296Z,4.10
2018-12-01T03:15:19.915Z,4.10
2018-12-01T03:17:49.376Z,4.10
2018-12-01T03:20:18.619Z,4.10
2018-12-01T03:22:47.435Z,4.10
2018-12-01T03:25:25.321Z,4.10
2018-12-01T03:27:55.006Z,4.10
2018-12-01T03:30:25.536Z,4.10
2018-12-01T03:32:56.339Z,4.10
2018-12-01T03:35:25.527Z,4.10
2018-12-01T03:37:54.240Z,4.10
2018-12-01T03:40:23.507Z,4.10
2018-12-01T03:42:53.122Z,4.10
2018-12-01T03:45:22.744Z,4.10
2018-12-01T03:47:52.456Z,4.10
2018-12-01T03:50:23.288Z,4.10
2018-12-01T03:53:07.480Z,4.10
2018-12-01T03:55:36.329Z,4.10
2018-12-01T03:58:05.369Z,4.20
2018-12-01T04:03:26.925Z,4.20
2018-12-01T04:05:56.088Z,4.10
2018-12-01T04:08:25.363Z,4.10
2018-12-01T04:10:54.361Z,4.10
2018-12-01T04:13:23.587Z,4.10
2018-12-01T04:15:52.776Z,4.10
2018-12-01T04:18:22.939Z,4.10
2018-12-01T04:20:52.692Z,4.10
2018-12-01T04:23:21.512Z,4.10
2018-12-01T04:26:05.575Z,4.10
2018-12-01T04:28:34.576Z,4.10
2018-12-01T04:31:04.036Z,4.20
2018-12-01T04:33:33.140Z,4.20
2018-12-01T04:36:04.711Z,4.20
2018-12-01T04:38:40.334Z,4.20
2018-12-01T04:41:11.144Z,4.20
2018-12-01T04:43:40.652Z,4.20
2018-12-01T04:46:12.043Z,4.20
2018-12-01T04:48:42.163Z,4.20
2018-12-01T04:51:12.589Z,4.30
2018-12-01T04:53:43.065Z,4.20
2018-12-01T04:56:51.521Z,4.20
2018-12-01T04:59:21.144Z,4.30
2018-12-01T05:01:52.137Z,4.30
2018-12-01T05:07:09.562Z,4.30
2018-12-01T05:09:51.739Z,4.30
2018-12-01T05:15:24.104Z,4.30
2018-12-01T05:18:45.921Z,4.30
2018-12-01T05:27:08.250Z,4.40
2018-12-01T05:29:57.799Z,4.40
2018-12-01T05:32:42.420Z,4.40
2018-12-01T05:35:37.640Z,4.40
2018-12-01T05:38:33.803Z,4.40
2018-12-01T05:50:03.978Z,4.50
2018-12-01T05:52:40.832Z,4.50
2018-12-01T05:55:14.326Z,4.50
2018-12-01T06:01:03.313Z,4.60
2018-12-01T06:03:44.036Z,4.60
2018-12-01T06:06:29.130Z,4.60
2018-12-01T06:17:41.862Z,4.70
2018-12-01T06:20:28.943Z,4.70
2018-12-01T06:22:59.899Z,4.70
2018-12-01T06:25:35.772Z,4.70
2018-12-01T06:28:27.596Z,4.70
2018-12-01T06:31:18.131Z,4.70
2018-12-01T06:33:54.589Z,4.70
2018-12-01T06:36:47.271Z,4.70
2018-12-01T07:04:27.739Z,4.80
2018-12-01T07:16:17.412Z,4.90
2018-12-01T07:22:07.680Z,4.90
2018-12-01T07:24:47.922Z,4.90
2018-12-01T07:27:26.243Z,4.90
2018-12-01T07:30:10.881Z,4.90
2018-12-01T07:42:03.569Z,5.00
2018-12-01T07:47:43.653Z,5.00
2018-12-01T07:50:20.552Z,5.00
2018-12-01T07:55:58.019Z,5.10
2018-12-01T07:58:35.221Z,5.10
2018-12-01T08:04:33.630Z,5.10
2018-12-01T08:07:06.741Z,5.10
2018-12-01T08:10:51.216Z,5.10
2018-12-01T08:13:39.546Z,5.20
2018-12-01T08:19:10.408Z,5.20
2018-12-01T08:21:44.519Z,5.20
2018-12-01T08:43:33.973Z,5.30
2018-12-01T08:46:06.823Z,5.30
2018-12-01T08:48:46.410Z,5.30
2018-12-01T08:51:25.082Z,5.30
2018-12-01T08:53:54.919Z,5.40
2018-12-01T08:56:47.266Z,5.40
2018-12-01T08:59:22.042Z,5.40
2018-12-01T09:01:51.301Z,5.40
2018-12-01T09:04:22.328Z,5.40
2018-12-01T09:06:51.824Z,5.40
2018-12-01T09:09:21.771Z,5.40
2018-12-01T09:11:58.632Z,5.50
2018-12-01T09:14:27.774Z,5.50
2018-12-01T09:16:57.021Z,5.50
2018-12-01T09:19:32.033Z,5.50
2018-12-01T09:22:01.552Z,5.50
2018-12-01T09:24:34.604Z,5.50
2018-12-01T09:27:05.784Z,5.50
2018-12-01T09:29:34.742Z,5.60
2018-12-01T09:32:04.515Z,5.60
2018-12-01T09:34:33.632Z,5.60
2018-12-01T09:37:02.729Z,5.60
2018-12-01T09:39:31.778Z,5.60
2018-12-01T09:42:02.089Z,5.60
2018-12-01T09:44:31.794Z,5.60
2018-12-01T09:47:00.782Z,5.60
2018-12-01T09:49:30.268Z,5.70
2018-12-01T09:51:59.673Z,5.70
2018-12-01T09:54:32.900Z,5.70
2018-12-01T09:57:07.953Z,5.70
2018-12-01T09:59:47.645Z,5.80
2018-12-01T10:02:24.651Z,5.80
2018-12-01T10:04:54.504Z,5.80
2018-12-01T10:07:22.995Z,5.80
2018-12-01T10:09:52.265Z,5.80
2018-12-01T10:12:22.521Z,5.80
2018-12-01T10:14:51.545Z,5.80
2018-12-01T10:17:25.038Z,5.80
2018-12-01T10:19:54.651Z,5.80
2018-12-01T10:22:24.276Z,5.90
2018-12-01T10:24:53.381Z,5.90
2018-12-01T10:27:23.202Z,5.90
2018-12-01T10:29:52.575Z,5.90
2018-12-01T10:32:23.089Z,5.90
2018-12-01T10:34:52.236Z,5.90
2018-12-01T10:37:21.798Z,5.90
2018-12-01T10:39:51.953Z,5.90
2018-12-01T10:42:21.934Z,5.90
2018-12-01T10:44:50.950Z,5.90
2018-12-01T10:47:20.064Z,5.80
2018-12-01T10:49:49.413Z,5.80
2018-12-01T10:52:18.513Z,5.90
2018-12-01T10:54:47.845Z,5.90
2018-12-01T10:57:17.062Z,5.90
2018-12-01T10:59:46.855Z,5.90
2018-12-01T11:02:21.662Z,5.90
2018-12-01T11:04:51.457Z,6.00
2018-12-01T11:07:25.866Z,6.00
2018-12-01T11:09:59.645Z,6.00
2018-12-01T11:15:44.373Z,6.00
2018-12-01T11:18:15.201Z,5.90
2018-12-01T11:20:45.265Z,6.00
2018-12-01T11:23:31.206Z,6.00
2018-12-01T11:26:10.299Z,6.00
2018-12-01T11:28:40.738Z,6.00
2018-12-01T11:34:04.630Z,6.10
2018-12-01T11:47:14.911Z,6.20
2018-12-01T11:50:01.056Z,6.10
2018-12-01T11:52:35.412Z,6.10
2018-12-01T11:55:23.380Z,6.10
2018-12-01T12:31:14.686Z,6.10
2018-12-01T12:33:45.875Z,6.10
2018-12-01T12:36:29.817Z,6.10
2018-12-01T13:14:13.864Z,6.10
2018-12-01T13:16:55.373Z,6.10
2018-12-01T13:19:29.303Z,6.10
2018-12-01T13:22:12.209Z,6.10
2018-12-01T13:24:43.322Z,6.10
2018-12-01T13:27:17.376Z,6.10
2018-12-01T13:33:31.002Z,6.10
2018-12-01T13:36:34.237Z,6.00
2018-12-01T13:39:10.063Z,6.10
2018-12-01T13:41:51.216Z,6.00
2018-12-01T13:44:38.613Z,6.10
2018-12-01T13:47:08.759Z,6.10
2018-12-01T13:52:44.844Z,6.00
2018-12-01T13:55:22.061Z,6.10
2018-12-01T13:58:02.862Z,6.00
2018-12-01T14:00:33.764Z,6.10
2018-12-01T14:24:26.775Z,6.00
2018-12-01T14:27:33.130Z,6.00
2018-12-01T14:33:16.506Z,6.00
2018-12-01T14:35:59.869Z,6.00
2018-12-01T15:40:52.072Z,6.00
2018-12-01T15:43:36.016Z,6.00
2018-12-01T15:46:21.122Z,6.00
2018-12-01T15:49:35.869Z,6.00
2018-12-01T15:54:52.211Z,6.00
2018-12-01T15:57:39.411Z,6.00
2018-12-01T16:00:21.134Z,6.00
2018-12-01T16:02:56.970Z,6.00
2018-12-01T16:06:13.701Z,6.00
2018-12-01T16:09:10.499Z,6.10
2018-12-01T17:19:27.903Z,6.10
2018-12-01T17:21:57.468Z,6.10
2018-12-01T17:24:29.831Z,6.10
2018-12-01T17:27:04.701Z,6.10
2018-12-01T17:29:36.703Z,6.10
2018-12-01T17:32:06.933Z,6.20
2018-12-01T17:34:40.549Z,6.20
2018-12-01T17:40:08.682Z,6.20
2018-12-01T17:42:47.404Z,6.20
2018-12-01T17:45:17.533Z,6.20
2018-12-01T17:47:47.694Z,6.20
2018-12-01T17:50:19.575Z,6.20
2018-12-01T17:55:29.953Z,6.20
2018-12-01T17:58:00.508Z,6.20
2018-12-01T18:00:31.474Z,6.20
2018-12-01T18:03:29.161Z,6.20
2018-12-01T18:09:01.411Z,6.10
2018-12-01T18:14:19.302Z,6.10
2018-12-01T18:16:49.682Z,6.10
2018-12-01T18:19:23.266Z,6.00
2018-12-01T18:22:02.336Z,6.00
2018-12-01T18:24:40.775Z,6.00
2018-12-01T18:27:20.973Z,6.00
2018-12-01T18:29:58.964Z,6.00
2018-12-01T18:32:33.279Z,6.00
2018-12-01T18:35:03.977Z,6.10
2018-12-01T18:46:35.110Z,6.10
2018-12-01T18:49:15.213Z,6.10
2018-12-01T18:56:45.990Z,6.10
2018-12-01T19:05:51.530Z,6.10
2018-12-01T19:11:18.283Z,6.00
2018-12-01T19:13:50.141Z,5.90
2018-12-01T19:16:20.542Z,5.80
2018-12-01T19:18:49.399Z,5.80
2018-12-01T19:21:24.168Z,5.80
2018-12-01T19:23:53.449Z,5.80
2018-12-01T19:29:22.501Z,5.80
2018-12-01T19:32:08.311Z,5.80
2018-12-01T19:34:38.422Z,5.80
2018-12-01T19:37:13.069Z,5.80
2018-12-01T19:39:42.788Z,5.80
2018-12-01T19:45:11.165Z,5.80
2018-12-01T19:47:42.015Z,5.80
2018-12-01T19:50:39.272Z,5.70
2018-12-01T19:53:14.671Z,5.70
2018-12-01T19:55:45.990Z,5.60
2018-12-01T19:58:26.547Z,5.60
2018-12-01T20:00:58.056Z,5.50
2018-12-01T20:03:37.991Z,5.50
2018-12-01T20:06:07.482Z,5.50
2018-12-01T20:08:48.224Z,5.50
2018-12-01T20:11:20.744Z,5.50
2018-12-01T20:13:58.079Z,5.50
2018-12-01T20:16:41.951Z,5.50
2018-12-01T20:19:17.594Z,5.50
2018-12-01T20:21:48.840Z,5.50
2018-12-01T20:24:30.335Z,5.50
2018-12-01T20:27:00.221Z,5.50
2018-12-01T20:29:40.875Z,5.60
2018-12-01T20:32:12.504Z,5.60
2018-12-01T20:34:43.444Z,5.60
2018-12-01T20:37:18.352Z,5.60
2018-12-01T20:39:54.828Z,5.60
2018-12-01T20:42:25.779Z,5.70
2018-12-01T20:44:59.492Z,5.70
2018-12-01T20:47:29.159Z,5.70
2018-12-01T20:49:58.097Z,5.70
2018-12-01T20:52:27.200Z,5.70
2018-12-01T20:55:26.742Z,5.70
2018-12-01T20:57:58.460Z,5.70
2018-12-01T21:00:27.803Z,5.70
2018-12-01T21:02:56.692Z,5.70
2018-12-01T21:05:26.885Z,5.70
2018-12-01T21:08:01.951Z,5.70
2018-12-01T21:10:40.655Z,5.70
2018-12-01T21:13:15.961Z,5.80
2018-12-01T21:18:22.752Z,5.80
2018-12-01T21:21:02.039Z,5.80
2018-12-01T21:23:57.429Z,5.80
2018-12-01T21:26:30.374Z,5.80
2018-12-01T21:29:03.073Z,5.80
2018-12-01T21:31:33.288Z,5.80
2018-12-01T21:34:03.451Z,5.80
2018-12-01T21:36:32.672Z,5.90
2018-12-01T21:39:10.033Z,5.80
2018-12-01T21:41:42.873Z,5.90
2018-12-01T21:44:12.905Z,5.90
2018-12-01T21:46:47.877Z,5.90
2018-12-01T21:49:19.552Z,5.90
2018-12-01T21:52:03.159Z,5.90
2018-12-01T21:54:33.241Z,5.90
2018-12-01T21:57:03.546Z,5.90
2018-12-01T21:59:33.570Z,5.90
2018-12-01T22:02:27.736Z,5.80
2018-12-01T22:05:00.569Z,5.80
2018-12-01T22:10:22.920Z,5.70
2018-12-01T22:14:45.892Z,5.60
2018-12-01T22:28:15.190Z,5.50
2018-12-01T23:05:53.761Z,5.40
2018-12-01T23:11:44.637Z,5.60
2018-12-01T23:14:23.670Z,5.60
2018-12-01T23:23:05.319Z,5.60
2018-12-01T23:29:01.256Z,5.70
2018-12-01T23:34:19.878Z,5.70
2018-12-01T23:37:14.570Z,5.70
2018-12-01T23:39:49.994Z,5.80
2018-12-01T23:42:41.842Z,5.80
2018-12-01T23:49:10.078Z,5.80
2018-12-01T23:52:15.475Z,5.80
